Time;durP1;ratioP1;P1;durP2;ratioP2;P2;SDS_P1;SDS_P2;PMS_P1;PMS_P2;Temp;Humidity;BMP_temperature;BMP_pressure;BME280_temperature;BME280_humidity;BME280_pressure;Samples;Min_cycle;Max_cycle;Signal;HPM_P1;HPM_P2
2023/04/27 00:01:18;;;;;;;;;;;;;;;;;;5071838;28;19947;-71
2023/04/27 00:03:46;;;;;;;;;;;;;;;;;;5057866;28;19924;-72
2023/04/27 00:06:13;;;;;;;;;;;;;;;;;;5058421;28;20017;-72
2023/04/27 00:08:40;;;;;;;;;;;;;;;;;;5067549;28;19929;-72
2023/04/27 00:11:07;;;;;;;;;;;;;;;;;;5071240;28;19928;-72
2023/04/27 00:13:34;;;;;;;;;;;;;;;;;;5072043;28;20022;-71
2023/04/27 00:16:02;;;;;;;;;;;;;;;;;;5070955;28;19928;-71
2023/04/27 00:18:29;;;;;;;;;;;;;;;;;;5069617;28;19937;-71
2023/04/27 00:20:56;;;;;;;;;;;;;;;;;;5069982;28;20439;-71
2023/04/27 00:23:23;;;;;;;;;;;;;;;;;;5070312;28;20023;-71
2023/04/27 00:25:50;;;;;;;;;;;;;;;;;;5063073;28;19925;-71
2023/04/27 00:28:17;;;;;;;;;;;;;;;;;;5055912;28;19929;-71
2023/04/27 00:30:45;;;;;;;;;;;;;;;;;;5070430;28;20357;-71
2023/04/27 00:33:12;;;;;;;;;;;;;;;;;;5071405;28;19925;-71
2023/04/27 00:35:39;;;;;;;;;;;;;;;;;;5059258;28;20036;-71
2023/04/27 00:38:06;;;;;;;;;;;;;;;;;;5063250;28;19924;-71
2023/04/27 00:40:33;;;;;;;;;;;;;;;;;;5070026;28;20005;-71
2023/04/27 00:43:00;;;;;;;;;;;;;;;;;;5070773;28;20035;-72
2023/04/27 00:45:27;;;;;;;;;;;;;;;;;;5071522;28;19924;-71
2023/04/27 00:47:54;;;;;;;;;;;;;;;;;;5071573;28;19970;-71
2023/04/27 00:50:21;;;;;;;;;;;;;;;;;;5070318;28;19936;-71
2023/04/27 00:52:48;;;;;;;;;;;;;;;;;;5070713;28;19968;-71
2023/04/27 00:55:15;;;;;;;;;;;;;;;;;;5074979;28;19977;-71
2023/04/27 00:57:42;;;;;;;;;;;;;;;;;;5075566;28;19925;-71
2023/04/27 01:00:10;;;;;;;;;;;;;;;;;;5075286;28;19930;-72
2023/04/27 01:02:37;;;;;;;;;;;;;;;;;;5074517;28;20292;-71
2023/04/27 01:05:04;;;;;;;;;;;;;;;;;;5075334;28;19975;-70
2023/04/27 01:07:31;;;;;;;;;;;;;;;;;;5071673;28;19935;-71
2023/04/27 01:09:58;;;;;;;;;;;;;;;;;;5056049;28;19924;-71
2023/04/27 01:12:25;;;;;;;;;;;;;;;;;;5071325;28;19971;-72
2023/04/27 01:14:52;;;;;;;;;;;;;;;;;;5075214;28;19924;-71
2023/04/27 01:17:19;;;;;;;;;;;;;;;;;;5070977;28;19925;-70
2023/04/27 01:19:46;;;;;;;;;;;;;;;;;;5055476;28;19924;-70
2023/04/27 01:22:14;;;;;;;;;;;;;;;;;;5067255;28;20388;-70
2023/04/27 01:24:41;;;;;;;;;;;;;;;;;;5072310;28;19928;-70
2023/04/27 01:27:08;;;;;;;;;;;;;;;;;;5055342;28;19974;-71
2023/04/27 01:29:35;;;;;;;;;;;;;;;;;;5055390;28;20343;-71
2023/04/27 01:32:02;;;;;;;;;;;;;;;;;;5056166;28;19925;-71
2023/04/27 01:34:29;;;;;;;;;;;;;;;;;;5074561;28;19925;-70
2023/04/27 01:36:56;;;;;;;;;;;;;;;;;;5066033;28;20393;-71
2023/04/27 01:39:23;;;;;;;;;;;;;;;;;;5054819;28;19979;-71
2023/04/27 01:41:50;;;;;;;;;;;;;;;;;;5069726;28;19924;-71
2023/04/27 01:44:19;;;;;;;;;;;;;;;;;;5074986;28;20283;-72
2023/04/27 01:46:46;;;;;;;;;;;;;;;;;;5073841;28;19924;-72
2023/04/27 01:49:13;;;;;;;;;;;;;;;;;;5073314;28;19975;-71
2023/04/27 01:51:40;;;;;;;;;;;;;;;;;;5071000;28;19964;-71
2023/04/27 01:54:07;;;;;;;;;;;;;;;;;;5069486;28;19956;-72
2023/04/27 01:56:34;;;;;;;;;;;;;;;;;;5067652;28;20554;-71
2023/04/27 01:59:01;;;;;;;;;;;;;;;;;;5070099;28;19931;-72
2023/04/27 02:01:30;;;;;;;;;;;;;;;;;;5068244;28;19986;-72
2023/04/27 02:03:57;;;;;;;;;;;;;;;;;;5070306;28;20312;-71
2023/04/27 02:06:24;;;;;;;;;;;;;;;;;;5071133;28;19968;-72
2023/04/27 02:08:51;;;;;;;;;;;;;;;;;;5073202;28;19970;-72
2023/04/27 02:11:18;;;;;;;;;;;;;;;;;;5074407;28;19924;-73
2023/04/27 02:13:45;;;;;;;;;;;;;;;;;;5062756;28;20033;-73
2023/04/27 02:16:12;;;;;;;;;;;;;;;;;;5062614;28;19932;-73
2023/04/27 02:18:39;;;;;;;;;;;;;;;;;;5071785;28;19978;-73
2023/04/27 02:21:06;;;;;;;;;;;;;;;;;;5077270;28;20437;-73
2023/04/27 02:23:34;;;;;;;;;;;;;;;;;;5073671;28;20021;-73
2023/04/27 02:26:01;;;;;;;;;;;;;;;;;;5073626;28;19974;-72
2023/04/27 02:28:28;;;;;;;;;;;;;;;;;;5069945;28;19967;-73
2023/04/27 02:30:55;;;;;;;;;;;;;;;;;;5072153;28;19924;-73
2023/04/27 02:33:22;;;;;;;;;;;;;;;;;;5061651;28;19978;-73
2023/04/27 02:35:49;;;;;;;;;;;;;;;;;;5070556;28;20412;-73
2023/04/27 02:38:16;;;;;;;;;;;;;;;;;;5071613;28;19928;-71
2023/04/27 02:40:43;;;;;;;;;;;;;;;;;;5070924;28;20498;-72
2023/04/27 02:43:10;;;;;;;;;;;;;;;;;;5059191;28;19974;-73
2023/04/27 02:45:37;;;;;;;;;;;;;;;;;;5066351;28;19978;-72
2023/04/27 02:48:04;;;;;;;;;;;;;;;;;;5073019;28;19931;-72
2023/04/27 02:50:31;;;;;;;;;;;;;;;;;;5072364;28;19967;-72
2023/04/27 02:52:58;;;;;;;;;;;;;;;;;;5070209;28;19924;-72
2023/04/27 02:55:26;;;;;;;;;;;;;;;;;;5063991;28;19955;-72
2023/04/27 02:57:53;;;;;;;;;;;;;;;;;;5071196;28;19929;-72
2023/04/27 03:00:20;;;;;;;;;;;;;;;;;;5059957;28;20365;-72
2023/04/27 03:02:47;;;;;;;;;;;;;;;;;;5053422;28;19925;-72
2023/04/27 03:05:14;;;;;;;;;;;;;;;;;;5057785;28;19925;-71
2023/04/27 03:07:41;;;;;;;;;;;;;;;;;;5071227;28;19925;-71
2023/04/27 03:10:08;;;;;;;;;;;;;;;;;;5072070;28;19931;-72
2023/04/27 03:12:35;;;;;;;;;;;;;;;;;;5072667;28;19928;-71
2023/04/27 03:15:03;;;;;;;;;;;;;;;;;;5071793;28;20408;-71
2023/04/27 03:17:30;;;;;;;;;;;;;;;;;;5060800;28;19924;-71
2023/04/27 03:19:57;;;;;;;;;;;;;;;;;;5069287;28;20266;-71
2023/04/27 03:22:24;;;;;;;;;;;;;;;;;;5070755;28;19924;-72
2023/04/27 03:24:51;;;;;;;;;;;;;;;;;;5053883;28;19991;-72
2023/04/27 03:27:18;;;;;;;;;;;;;;;;;;5064103;28;19925;-72
2023/04/27 03:29:45;;;;;;;;;;;;;;;;;;5055704;28;19990;-72
2023/04/27 03:32:12;;;;;;;;;;;;;;;;;;5062424;28;19932;-72
2023/04/27 03:34:39;;;;;;;;;;;;;;;;;;5071789;28;19925;-72
2023/04/27 03:37:06;;;;;;;;;;;;;;;;;;5070253;28;20045;-72
2023/04/27 03:39:33;;;;;;;;;;;;;;;;;;5066960;28;20041;-72
2023/04/27 03:42:01;;;;;;;;;;;;;;;;;;5052202;28;20286;-72
2023/04/27 03:44:29;;;;;;;;;;;;;;;;;;5056317;28;20104;-72
2023/04/27 03:46:56;;;;;;;;;;;;;;;;;;5072173;28;19971;-71
2023/04/27 03:49:23;;;;;;;;;;;;;;;;;;5070699;28;19977;-71
2023/04/27 03:51:50;;;;;;;;;;;;;;;;;;5057832;28;19925;-71
2023/04/27 03:54:17;;;;;;;;;;;;;;;;;;5067550;28;19924;-72
2023/04/27 03:56:44;;;;;;;;;;;;;;;;;;5068705;28;20384;-72
2023/04/27 03:59:11;;;;;;;;;;;;;;;;;;5071970;28;19958;-72
2023/04/27 04:01:38;;;;;;;;;;;;;;;;;;5071820;28;19960;-72
2023/04/27 04:04:05;;;;;;;;;;;;;;;;;;5070444;28;19931;-73
2023/04/27 04:06:32;;;;;;;;;;;;;;;;;;5070997;28;19972;-72
2023/04/27 04:08:59;;;;;;;;;;;;;;;;;;5069968;28;19924;-74
2023/04/27 04:11:27;;;;;;;;;;;;;;;;;;5077704;28;19960;-71
2023/04/27 04:13:54;;;;;;;;;;;;;;;;;;5080938;28;19978;-72
2023/04/27 04:16:21;;;;;;;;;;;;;;;;;;5078286;28;19925;-72
2023/04/27 04:18:48;;;;;;;;;;;;;;;;;;5071672;28;19974;-71
2023/04/27 04:21:15;;;;;;;;;;;;;;;;;;5071744;28;20307;-72
2023/04/27 04:23:42;;;;;;;;;;;;;;;;;;5070957;28;19981;-71
2023/04/27 04:26:10;;;;;;;;;;;;;;;;;;5072081;28;19925;-71
2023/04/27 04:28:37;;;;;;;;;;;;;;;;;;5070788;28;19932;-71
2023/04/27 04:31:05;;;;;;;;;;;;;;;;;;5071203;28;19925;-71
2023/04/27 04:33:32;;;;;;;;;;;;;;;;;;5070631;28;19944;-69
2023/04/27 04:35:59;;;;;;;;;;;;;;;;;;5071192;28;20058;-70
2023/04/27 04:38:26;;;;;;;;;;;;;;;;;;5065449;28;20370;-70
2023/04/27 04:40:53;;;;;;;;;;;;;;;;;;5070349;28;20248;-70
2023/04/27 04:43:21;;;;;;;;;;;;;;;;;;5070949;28;19928;-70
2023/04/27 04:45:48;;;;;;;;;;;;;;;;;;5071880;28;19931;-70
2023/04/27 04:48:15;;;;;;;;;;;;;;;;;;5071659;28;19924;-70
2023/04/27 04:50:42;;;;;;;;;;;;;;;;;;5067196;28;19932;-71
2023/04/27 04:53:09;;;;;;;;;;;;;;;;;;5057066;28;19928;-71
2023/04/27 04:55:36;;;;;;;;;;;;;;;;;;5063112;28;19925;-71
2023/04/27 04:58:03;;;;;;;;;;;;;;;;;;5067132;28;19974;-70
2023/04/27 05:00:30;;;;;;;;;;;;;;;;;;5070303;28;19924;-71
2023/04/27 05:02:57;;;;;;;;;;;;;;;;;;5066079;28;19928;-71
2023/04/27 05:05:24;;;;;;;;;;;;;;;;;;5058310;28;19931;-71
2023/04/27 05:07:51;;;;;;;;;;;;;;;;;;5069848;28;20035;-71
2023/04/27 05:10:18;;;;;;;;;;;;;;;;;;5067396;28;19946;-71
2023/04/27 05:12:45;;;;;;;;;;;;;;;;;;5073623;28;19924;-71
2023/04/27 05:15:12;;;;;;;;;;;;;;;;;;5071925;28;19932;-70
2023/04/27 05:17:39;;;;;;;;;;;;;;;;;;5065462;28;20028;-70
2023/04/27 05:20:07;;;;;;;;;;;;;;;;;;5072417;28;19970;-70
2023/04/27 05:22:35;;;;;;;;;;;;;;;;;;5068120;28;19925;-71
2023/04/27 05:25:03;;;;;;;;;;;;;;;;;;5077105;28;20457;-71
2023/04/27 05:27:30;;;;;;;;;;;;;;;;;;5059713;28;20038;-71
2023/04/27 05:29:57;;;;;;;;;;;;;;;;;;5062836;28;20070;-70
2023/04/27 05:32:24;;;;;;;;;;;;;;;;;;5066378;28;20061;-71
2023/04/27 05:34:51;;;;;;;;;;;;;;;;;;5070238;28;20369;-71
2023/04/27 05:37:18;;;;;;;;;;;;;;;;;;5088577;28;19935;-71
2023/04/27 05:39:45;;;;;;;;;;;;;;;;;;5060990;28;19928;-70
2023/04/27 05:42:12;;;;;;;;;;;;;;;;;;5071302;28;20011;-70
2023/04/27 05:44:39;;;;;;;;;;;;;;;;;;5067588;28;19929;-71
2023/04/27 05:47:06;;;;;;;;;;;;;;;;;;5072285;28;19967;-71
2023/04/27 05:49:33;;;;;;;;;;;;;;;;;;5063301;28;19970;-70
2023/04/27 05:52:00;;;;;;;;;;;;;;;;;;5070437;28;20377;-70
2023/04/27 05:54:27;;;;;;;;;;;;;;;;;;5067766;28;19974;-71
2023/04/27 05:56:55;;;;;;;;;;;;;;;;;;5061143;28;19984;-71
2023/04/27 05:59:22;;;;;;;;;;;;;;;;;;5074381;28;19924;-70
2023/04/27 06:01:49;;;;;;;;;;;;;;;;;;5064052;28;19925;-70
2023/04/27 06:04:16;;;;;;;;;;;;;;;;;;5079187;28;19968;-70
2023/04/27 06:06:43;;;;;;;;;;;;;;;;;;5067543;28;20009;-71
2023/04/27 06:09:10;;;;;;;;;;;;;;;;;;5069233;28;19925;-70
2023/04/27 06:11:37;;;;;;;;;;;;;;;;;;5069193;28;19989;-70
2023/04/27 06:14:04;;;;;;;;;;;;;;;;;;5071367;28;19982;-69
2023/04/27 06:16:31;;;;;;;;;;;;;;;;;;5059058;28;20018;-70
2023/04/27 06:18:58;;;;;;;;;;;;;;;;;;5067313;28;20400;-70
2023/04/27 06:21:25;;;;;;;;;;;;;;;;;;5068216;28;19979;-70
2023/04/27 06:23:52;;;;;;;;;;;;;;;;;;5067132;28;19967;-70
2023/04/27 06:26:19;;;;;;;;;;;;;;;;;;5065699;28;20002;-70
2023/04/27 06:28:46;;;;;;;;;;;;;;;;;;5071175;28;19955;-70
2023/04/27 06:31:14;;;;;;;;;;;;;;;;;;5071009;28;20304;-70
2023/04/27 06:33:41;;;;;;;;;;;;;;;;;;5070416;28;19983;-66
2023/04/27 06:36:08;;;;;;;;;;;;;;;;;;5062131;28;19968;-68
2023/04/27 06:38:35;;;;;;;;;;;;;;;;;;5069053;28;20017;-68
2023/04/27 06:41:03;;;;;;;;;;;;;;;;;;5061284;28;20373;-67
2023/04/27 06:43:30;;;;;;;;;;;;;;;;;;5058000;28;20007;-67
2023/04/27 06:45:57;;;;;;;;;;;;;;;;;;5057791;28;20397;-68
2023/04/27 06:48:24;;;;;;;;;;;;;;;;;;5062582;28;19924;-69
2023/04/27 06:50:51;;;;;;;;;;;;;;;;;;5062668;28;19924;-67
2023/04/27 06:53:18;;;;;;;;;;;;;;;;;;5063728;28;19929;-67
2023/04/27 06:55:45;;;;;;;;;;;;;;;;;;5059793;28;19928;-67
2023/04/27 06:58:12;;;;;;;;;;;;;;;;;;5067353;28;19932;-66
2023/04/27 07:00:39;;;;;;;;;;;;;;;;;;5071242;28;19978;-66
2023/04/27 07:03:06;;;;;;;;;;;;;;;;;;5072095;28;19925;-66
2023/04/27 07:05:33;;;;;;;;;;;;;;;;;;5072265;28;20434;-66
2023/04/27 07:08:00;;;;;;;;;;;;;;;;;;5067197;28;19932;-66
2023/04/27 07:10:27;;;;;;;;;;;;;;;;;;5071017;28;19928;-65
2023/04/27 07:12:54;;;;;;;;;;;;;;;;;;5070778;28;19929;-67
2023/04/27 07:15:21;;;;;;;;;;;;;;;;;;5070207;28;20381;-67
2023/04/27 07:17:48;;;;;;;;;;;;;;;;;;5060333;28;19975;-67
2023/04/27 07:20:16;;;;;;;;;;;;;;;;;;5061240;28;20381;-67
2023/04/27 07:22:43;;;;;;;;;;;;;;;;;;5059276;28;19960;-67
2023/04/27 07:25:10;;;;;;;;;;;;;;;;;;5070183;28;20024;-67
2023/04/27 07:27:38;;;;;;;;;;;;;;;;;;5069541;28;19925;-67
2023/04/27 07:30:07;;;;;;;;;;;;;;;;;;5071896;28;20007;-65
2023/04/27 07:32:34;;;;;;;;;;;;;;;;;;5068617;28;20035;-65
2023/04/27 07:35:01;;;;;;;;;;;;;;;;;;5068570;28;19932;-66
2023/04/27 07:37:29;;;;;;;;;;;;;;;;;;5060685;28;19929;-65
2023/04/27 07:39:56;;;;;;;;;;;;;;;;;;5066911;28;20277;-66
2023/04/27 07:42:23;;;;;;;;;;;;;;;;;;5070003;28;20373;-64
2023/04/27 07:44:51;;;;;;;;;;;;;;;;;;5070162;28;19954;-65
2023/04/27 07:47:18;;;;;;;;;;;;;;;;;;5071054;28;19931;-65
2023/04/27 07:49:46;;;;;;;;;;;;;;;;;;5070173;28;20015;-65
2023/04/27 07:52:13;;;;;;;;;;;;;;;;;;5066533;28;19925;-66
2023/04/27 07:54:40;;;;;;;;;;;;;;;;;;5062007;28;19989;-65
2023/04/27 07:57:06;;;;;;;;;;;;;;;;;;5071577;28;19967;-66
2023/04/27 07:59:34;;;;;;;;;;;;;;;;;;5056503;28;19987;-65
2023/04/27 08:02:01;;;;;;;;;;;;;;;;;;5059075;28;20365;-65
2023/04/27 08:04:27;;;;;;;;;;;;;;;;;;5061890;28;19974;-66
2023/04/27 08:06:55;;;;;;;;;;;;;;;;;;5060687;28;20388;-67
2023/04/27 08:09:22;;;;;;;;;;;;;;;;;;5059826;28;20300;-66
2023/04/27 08:11:49;;;;;;;;;;;;;;;;;;5058164;28;19925;-65
2023/04/27 08:14:16;;;;;;;;;;;;;;;;;;5067228;28;20019;-65
2023/04/27 08:16:43;;;;;;;;;;;;;;;;;;5064544;28;19933;-65
2023/04/27 08:19:10;;;;;;;;;;;;;;;;;;5064098;28;19924;-65
2023/04/27 08:21:37;;;;;;;;;;;;;;;;;;5064955;28;20008;-64
2023/04/27 08:24:04;;;;;;;;;;;;;;;;;;5064261;28;20446;-65
2023/04/27 08:26:31;;;;;;;;;;;;;;;;;;5064816;28;19924;-65
2023/04/27 08:28:59;;;;;;;;;;;;;;;;;;5062373;28;19931;-66
2023/04/27 08:31:26;;;;;;;;;;;;;;;;;;5066737;28;20044;-65
2023/04/27 08:33:53;;;;;;;;;;;;;;;;;;5070357;28;20444;-65
2023/04/27 08:36:20;;;;;;;;;;;;;;;;;;5070581;28;19944;-63
2023/04/27 08:38:47;;;;;;;;;;;;;;;;;;5069159;28;19930;-65
2023/04/27 08:41:14;;;;;;;;;;;;;;;;;;5067212;28;19931;-65
2023/04/27 08:43:41;;;;;;;;;;;;;;;;;;5056543;28;19968;-64
2023/04/27 08:46:08;;;;;;;;;;;;;;;;;;5068154;28;20331;-66
2023/04/27 08:48:35;;;;;;;;;;;;;;;;;;5065014;28;19924;-64
2023/04/27 08:51:02;;;;;;;;;;;;;;;;;;5054868;28;19936;-65
2023/04/27 08:53:30;;;;;;;;;;;;;;;;;;5066516;28;19994;-64
2023/04/27 08:55:57;;;;;;;;;;;;;;;;;;5062552;28;20452;-66
2023/04/27 08:58:24;;;;;;;;;;;;;;;;;;5065871;28;20030;-67
2023/04/27 09:00:51;;;;;;;;;;;;;;;;;;5067767;28;19924;-67
2023/04/27 09:03:18;;;;;;;;;;;;;;;;;;5064629;28;19985;-67
2023/04/27 09:05:45;;;;;;;;;;;;;;;;;;5061071;28;19978;-68
2023/04/27 09:08:12;;;;;;;;;;;;;;;;;;5063656;28;20018;-66
2023/04/27 09:10:39;;;;;;;;;;;;;;;;;;5057154;28;19924;-66
2023/04/27 09:13:07;;;;;;;;;;;;;;;;;;5066084;28;20045;-66
2023/04/27 09:15:34;;;;;;;;;;;;;;;;;;5063748;28;19924;-66
2023/04/27 09:18:01;;;;;;;;;;;;;;;;;;5068111;28;19939;-67
2023/04/27 09:20:28;;;;;;;;;;;;;;;;;;5067661;28;20017;-67
2023/04/27 09:22:56;;;;;;;;;;;;;;;;;;5068939;28;19977;-66
2023/04/27 09:25:23;;;;;;;;;;;;;;;;;;5068030;28;19931;-67
2023/04/27 09:27:50;;;;;;;;;;;;;;;;;;5070238;28;20385;-66
2023/04/27 09:30:18;;;;;;;;;;;;;;;;;;5072284;28;19978;-67
2023/04/27 09:32:45;;;;;;;;;;;;;;;;;;5064138;28;20339;-66
2023/04/27 09:35:12;;;;;;;;;;;;;;;;;;5074347;28;19925;-66
2023/04/27 09:37:39;;;;;;;;;;;;;;;;;;5067753;28;20004;-66
2023/04/27 09:40:06;;;;;;;;;;;;;;;;;;5057094;28;19928;-66
2023/04/27 09:42:33;;;;;;;;;;;;;;;;;;5059053;28;19944;-68
2023/04/27 09:45:00;;;;;;;;;;;;;;;;;;5071974;28;19970;-67
2023/04/27 09:47:28;;;;;;;;;;;;;;;;;;5065255;28;19929;-66
2023/04/27 09:49:55;;;;;;;;;;;;;;;;;;5069665;28;19934;-66
2023/04/27 09:52:22;;;;;;;;;;;;;;;;;;5067754;28;19940;-66
2023/04/27 09:54:49;;;;;;;;;;;;;;;;;;5072464;28;20377;-66
2023/04/27 09:57:16;;;;;;;;;;;;;;;;;;5067159;28;19936;-66
2023/04/27 09:59:43;;;;;;;;;;;;;;;;;;5071698;28;19925;-66
2023/04/27 10:02:10;;;;;;;;;;;;;;;;;;5070967;28;19928;-66
2023/04/27 10:04:37;;;;;;;;;;;;;;;;;;5065756;28;19925;-66
2023/04/27 10:07:05;;;;;;;;;;;;;;;;;;5059973;28;19968;-66
2023/04/27 10:09:32;;;;;;;;;;;;;;;;;;5069484;28;19925;-67
2023/04/27 10:11:59;;;;;;;;;;;;;;;;;;5070266;28;19971;-66
2023/04/27 10:14:26;;;;;;;;;;;;;;;;;;5068524;28;19975;-67
2023/04/27 10:16:53;;;;;;;;;;;;;;;;;;5069350;28;19980;-66
2023/04/27 10:19:20;;;;;;;;;;;;;;;;;;5069290;28;19964;-67
2023/04/27 10:21:47;;;;;;;;;;;;;;;;;;5064094;28;19925;-66
2023/04/27 10:24:14;;;;;;;;;;;;;;;;;;5066436;28;19924;-66
2023/04/27 10:26:41;;;;;;;;;;;;;;;;;;5072624;28;19924;-66
2023/04/27 10:29:11;;;;;;;;;;;;;;;;;;5073808;28;19931;-67
2023/04/27 10:31:38;;;;;;;;;;;;;;;;;;5068606;28;19975;-66
2023/04/27 10:34:05;;;;;;;;;;;;;;;;;;5071721;28;20381;-67
2023/04/27 10:36:33;;;;;;;;;;;;;;;;;;5069831;28;19928;-67
2023/04/27 10:39:00;;;;;;;;;;;;;;;;;;5065119;28;20015;-67
2023/04/27 10:41:27;;;;;;;;;;;;;;;;;;5061374;28;19928;-67
2023/04/27 10:43:54;;;;;;;;;;;;;;;;;;5073081;28;19978;-66
2023/04/27 10:46:21;;;;;;;;;;;;;;;;;;5073186;28;20273;-66
2023/04/27 10:48:48;;;;;;;;;;;;;;;;;;5065572;28;19925;-67
2023/04/27 10:51:15;;;;;;;;;;;;;;;;;;5062486;28;20025;-67
2023/04/27 10:53:42;;;;;;;;;;;;;;;;;;5061182;28;19924;-67
2023/04/27 10:56:09;;;;;;;;;;;;;;;;;;5070339;28;19924;-67
2023/04/27 10:58:36;;;;;;;;;;;;;;;;;;5065155;28;19925;-67
2023/04/27 11:01:04;;;;;;;;;;;;;;;;;;5060748;28;19932;-67
2023/04/27 11:03:31;;;;;;;;;;;;;;;;;;5072892;28;20310;-67
2023/04/27 11:05:58;;;;;;;;;;;;;;;;;;5067840;28;20027;-67
2023/04/27 11:08:25;;;;;;;;;;;;;;;;;;5064890;28;20469;-67
2023/04/27 11:10:52;;;;;;;;;;;;;;;;;;5061817;28;19975;-68
2023/04/27 11:13:19;;;;;;;;;;;;;;;;;;5063894;28;19924;-67
2023/04/27 11:15:46;;;;;;;;;;;;;;;;;;5065294;28;19928;-69
2023/04/27 11:18:14;;;;;;;;;;;;;;;;;;5068203;28;20289;-67
2023/04/27 11:20:41;;;;;;;;;;;;;;;;;;5056735;28;20448;-68
2023/04/27 11:23:09;;;;;;;;;;;;;;;;;;5062473;28;20015;-67
2023/04/27 11:25:36;;;;;;;;;;;;;;;;;;5064270;28;20016;-67
2023/04/27 11:28:04;;;;;;;;;;;;;;;;;;5067391;28;19964;-67
2023/04/27 11:30:32;;;;;;;;;;;;;;;;;;5064018;28;19924;-67
2023/04/27 11:32:58;;;;;;;;;;;;;;;;;;5057005;28;19994;-67
2023/04/27 11:35:26;;;;;;;;;;;;;;;;;;5070080;28;19966;-67
2023/04/27 11:37:53;;;;;;;;;;;;;;;;;;5068777;28;19966;-68
2023/04/27 11:40:20;;;;;;;;;;;;;;;;;;5070822;28;19925;-68
2023/04/27 11:42:47;;;;;;;;;;;;;;;;;;5061498;28;20284;-69
2023/04/27 11:45:14;;;;;;;;;;;;;;;;;;5064105;28;19925;-67
2023/04/27 11:47:41;;;;;;;;;;;;;;;;;;5062048;28;20415;-67
2023/04/27 11:50:08;;;;;;;;;;;;;;;;;;5070145;28;19928;-67
2023/04/27 11:52:35;;;;;;;;;;;;;;;;;;5064934;28;20416;-67
2023/04/27 11:55:03;;;;;;;;;;;;;;;;;;5070262;28;19978;-67
2023/04/27 11:57:30;;;;;;;;;;;;;;;;;;5069323;28;19925;-67
2023/04/27 11:59:57;;;;;;;;;;;;;;;;;;5060154;28;19979;-64
2023/04/27 12:02:24;;;;;;;;;;;;;;;;;;5068584;28;19925;-64
2023/04/27 12:04:51;;;;;;;;;;;;;;;;;;5074190;28;19936;-64
2023/04/27 12:07:18;;;;;;;;;;;;;;;;;;5068343;28;19933;-64
2023/04/27 12:09:45;;;;;;;;;;;;;;;;;;5069982;28;19979;-65
2023/04/27 12:12:12;;;;;;;;;;;;;;;;;;5067774;28;19933;-64
2023/04/27 12:14:40;;;;;;;;;;;;;;;;;;5055635;28;20356;-65
2023/04/27 12:17:07;;;;;;;;;;;;;;;;;;5065557;28;19970;-65
2023/04/27 12:19:35;;;;;;;;;;;;;;;;;;5064970;28;19932;-64
2023/04/27 12:22:03;;;;;;;;;;;;;;;;;;5067338;28;20000;-65
2023/04/27 12:24:30;;;;;;;;;;;;;;;;;;5058814;28;20067;-65
2023/04/27 12:26:57;;;;;;;;;;;;;;;;;;5065960;28;20895;-65
2023/04/27 12:29:24;;;;;;;;;;;;;;;;;;5066642;28;19932;-65
2023/04/27 12:31:52;;;;;;;;;;;;;;;;;;5064182;28;19929;-65
2023/04/27 12:34:19;;;;;;;;;;;;;;;;;;5059302;28;19928;-65
2023/04/27 12:36:46;;;;;;;;;;;;;;;;;;5063993;28;19928;-65
2023/04/27 12:39:13;;;;;;;;;;;;;;;;;;5068104;28;19924;-65
2023/04/27 12:41:40;;;;;;;;;;;;;;;;;;5070313;28;19924;-65
2023/04/27 12:44:07;;;;;;;;;;;;;;;;;;5070586;28;19998;-65
2023/04/27 12:46:34;;;;;;;;;;;;;;;;;;5064674;28;20312;-65
2023/04/27 12:49:01;;;;;;;;;;;;;;;;;;5063918;28;20379;-65
2023/04/27 12:51:28;;;;;;;;;;;;;;;;;;5071208;28;20540;-65
2023/04/27 12:53:55;;;;;;;;;;;;;;;;;;5067453;28;19967;-67
2023/04/27 12:56:22;;;;;;;;;;;;;;;;;;5058944;28;20014;-67
2023/04/27 12:58:49;;;;;;;;;;;;;;;;;;5073049;28;19932;-68
2023/04/27 13:01:16;;;;;;;;;;;;;;;;;;5073282;28;19972;-67
2023/04/27 13:03:43;;;;;;;;;;;;;;;;;;5070352;28;19979;-69
2023/04/27 13:06:10;;;;;;;;;;;;;;;;;;5060629;28;19986;-69
2023/04/27 13:08:37;;;;;;;;;;;;;;;;;;5071616;28;19924;-68
2023/04/27 13:11:04;;;;;;;;;;;;;;;;;;5069843;28;19925;-68
2023/04/27 13:13:31;;;;;;;;;;;;;;;;;;5071277;28;19960;-68
2023/04/27 13:15:58;;;;;;;;;;;;;;;;;;5060323;28;20427;-68
2023/04/27 13:18:26;;;;;;;;;;;;;;;;;;5065589;28;19924;-69
2023/04/27 13:20:53;;;;;;;;;;;;;;;;;;5073481;28;19931;-69
2023/04/27 13:23:20;;;;;;;;;;;;;;;;;;5063436;28;19979;-68
2023/04/27 13:25:47;;;;;;;;;;;;;;;;;;5077424;28;19935;-69
2023/04/27 13:28:14;;;;;;;;;;;;;;;;;;5070430;28;19924;-68
2023/04/27 13:30:41;;;;;;;;;;;;;;;;;;5065317;28;19976;-68
2023/04/27 13:33:11;;;;;;;;;;;;;;;;;;5073107;28;19959;-68
2023/04/27 13:35:38;;;;;;;;;;;;;;;;;;5074280;28;19967;-68
2023/04/27 13:38:05;;;;;;;;;;;;;;;;;;5071720;28;19970;-67
2023/04/27 13:40:32;;;;;;;;;;;;;;;;;;5072268;28;19931;-68
2023/04/27 13:42:59;;;;;;;;;;;;;;;;;;5065199;28;19935;-68
2023/04/27 13:45:26;;;;;;;;;;;;;;;;;;5061803;28;20021;-68
2023/04/27 13:47:53;;;;;;;;;;;;;;;;;;5070545;28;21984;-68
2023/04/27 13:50:20;;;;;;;;;;;;;;;;;;5067334;28;20033;-68
2023/04/27 13:52:47;;;;;;;;;;;;;;;;;;5059039;28;20373;-67
2023/04/27 13:55:14;;;;;;;;;;;;;;;;;;5063357;28;19972;-68
2023/04/27 13:57:41;;;;;;;;;;;;;;;;;;5064096;28;20277;-67
2023/04/27 14:00:10;;;;;;;;;;;;;;;;;;5063689;28;19924;-67
2023/04/27 14:02:37;;;;;;;;;;;;;;;;;;5066513;28;19928;-67
2023/04/27 14:05:04;;;;;;;;;;;;;;;;;;5071763;28;19933;-68
2023/04/27 14:07:33;;;;;;;;;;;;;;;;;;5069329;28;19975;-67
2023/04/27 14:10:00;;;;;;;;;;;;;;;;;;5062881;28;20019;-67
2023/04/27 14:12:27;;;;;;;;;;;;;;;;;;5067345;28;19966;-69
2023/04/27 14:14:54;;;;;;;;;;;;;;;;;;5071880;28;19933;-67
2023/04/27 14:17:21;;;;;;;;;;;;;;;;;;5064756;28;20379;-65
2023/04/27 14:19:48;;;;;;;;;;;;;;;;;;5070033;28;19932;-67
2023/04/27 14:22:15;;;;;;;;;;;;;;;;;;5063368;28;19932;-67
2023/04/27 14:24:42;;;;;;;;;;;;;;;;;;5069375;28;20301;-67
2023/04/27 14:27:09;;;;;;;;;;;;;;;;;;5070421;28;19960;-66
2023/04/27 14:29:36;;;;;;;;;;;;;;;;;;5066405;28;19925;-67
2023/04/27 14:32:03;;;;;;;;;;;;;;;;;;5057881;28;19925;-67
2023/04/27 14:34:33;;;;;;;;;;;;;;;;;;5058815;28;20316;-66
2023/04/27 14:37:00;;;;;;;;;;;;;;;;;;5068524;28;20438;-66
2023/04/27 14:39:27;;;;;;;;;;;;;;;;;;5067550;28;20101;-66
2023/04/27 14:41:54;;;;;;;;;;;;;;;;;;5071388;28;20016;-68
2023/04/27 14:44:21;;;;;;;;;;;;;;;;;;5063014;28;19928;-68
2023/04/27 14:46:48;;;;;;;;;;;;;;;;;;5060115;28;20205;-69
2023/04/27 14:49:15;;;;;;;;;;;;;;;;;;5065261;28;19964;-69
2023/04/27 14:51:42;;;;;;;;;;;;;;;;;;5070740;28;19924;-69
2023/04/27 14:54:09;;;;;;;;;;;;;;;;;;5066393;28;19994;-69
2023/04/27 14:56:36;;;;;;;;;;;;;;;;;;5068322;28;19940;-69
2023/04/27 14:59:03;;;;;;;;;;;;;;;;;;5066469;28;19924;-69
2023/04/27 15:01:30;;;;;;;;;;;;;;;;;;5058534;28;19970;-69
2023/04/27 15:03:57;;;;;;;;;;;;;;;;;;5057433;28;19928;-69
2023/04/27 15:06:26;;;;;;;;;;;;;;;;;;5059710;28;19964;-69
2023/04/27 15:08:53;;;;;;;;;;;;;;;;;;5057059;28;20038;-69
2023/04/27 15:11:20;;;;;;;;;;;;;;;;;;5060796;28;20347;-69
2023/04/27 15:13:48;;;;;;;;;;;;;;;;;;5064124;28;19964;-67
2023/04/27 15:16:15;;;;;;;;;;;;;;;;;;5062926;28;19932;-68
2023/04/27 15:18:42;;;;;;;;;;;;;;;;;;5065713;28;19929;-67
2023/04/27 15:21:09;;;;;;;;;;;;;;;;;;5064247;28;19924;-68
2023/04/27 15:23:36;;;;;;;;;;;;;;;;;;5070783;28;20002;-68
2023/04/27 15:26:03;;;;;;;;;;;;;;;;;;5066332;28;19982;-68
2023/04/27 15:28:32;;;;;;;;;;;;;;;;;;5065046;28;20396;-69
2023/04/27 15:30:59;;;;;;;;;;;;;;;;;;5067785;28;19931;-67
2023/04/27 15:33:26;;;;;;;;;;;;;;;;;;5068089;28;20024;-68
2023/04/27 15:35:53;;;;;;;;;;;;;;;;;;5068155;28;19975;-68
2023/04/27 15:38:20;;;;;;;;;;;;;;;;;;5059080;28;19935;-71
2023/04/27 15:40:48;;;;;;;;;;;;;;;;;;5057577;28;20295;-68
2023/04/27 15:43:15;;;;;;;;;;;;;;;;;;5065605;28;19925;-68
2023/04/27 15:45:42;;;;;;;;;;;;;;;;;;5067066;28;20061;-68
2023/04/27 15:48:10;;;;;;;;;;;;;;;;;;5059677;28;20019;-69
2023/04/27 15:50:37;;;;;;;;;;;;;;;;;;5062973;28;20403;-67
2023/04/27 15:53:04;;;;;;;;;;;;;;;;;;5063222;28;19977;-67
2023/04/27 15:55:31;;;;;;;;;;;;;;;;;;5056388;28;19929;-66
2023/04/27 15:57:58;;;;;;;;;;;;;;;;;;5068176;28;20009;-66
2023/04/27 16:00:25;;;;;;;;;;;;;;;;;;5066554;28;20024;-67
2023/04/27 16:02:52;;;;;;;;;;;;;;;;;;5068412;28;20312;-66
2023/04/27 16:05:19;;;;;;;;;;;;;;;;;;5064475;28;20392;-67
2023/04/27 16:07:46;;;;;;;;;;;;;;;;;;5059313;28;19971;-67
2023/04/27 16:10:13;;;;;;;;;;;;;;;;;;5068753;28;20570;-67
2023/04/27 16:12:40;;;;;;;;;;;;;;;;;;5064411;28;19968;-67
2023/04/27 16:15:07;;;;;;;;;;;;;;;;;;5054347;28;19952;-67
2023/04/27 16:17:34;;;;;;;;;;;;;;;;;;5062145;28;19980;-67
2023/04/27 16:20:02;;;;;;;;;;;;;;;;;;5065737;28;19943;-68
2023/04/27 16:22:29;;;;;;;;;;;;;;;;;;5066740;28;19978;-68
2023/04/27 16:24:56;;;;;;;;;;;;;;;;;;5064571;28;19986;-68
2023/04/27 16:27:23;;;;;;;;;;;;;;;;;;5053623;28;19928;-68
2023/04/27 16:29:50;;;;;;;;;;;;;;;;;;5058789;28;19960;-68
2023/04/27 16:32:18;;;;;;;;;;;;;;;;;;5058655;28;20305;-67
2023/04/27 16:34:45;;;;;;;;;;;;;;;;;;5060405;28;20023;-68
2023/04/27 16:37:12;;;;;;;;;;;;;;;;;;5065681;28;19925;-71
2023/04/27 16:39:40;;;;;;;;;;;;;;;;;;5062600;28;20458;-68
2023/04/27 16:42:07;;;;;;;;;;;;;;;;;;5060494;28;19936;-69
2023/04/27 16:44:34;;;;;;;;;;;;;;;;;;5067418;28;20011;-70